Time;durP1;ratioP1;P1;durP2;ratioP2;P2;SDS_P1;SDS_P2;PMS_P1;PMS_P2;Temp;Humidity;BMP_temperature;BMP_pressure;BME280_temperature;BME280_humidity;BME280_pressure;Samples;Min_cycle;Max_cycle;Signal;HPM_P1;HPM_P2
2023/03/01 00:01:14;;;;;;;38.87;17.73;;;;;;;;;;5011456;28;20110;-77
2023/03/01 00:03:40;;;;;;;34.65;15.75;;;;;;;;;;5012090;28;20056;-77
2023/03/01 00:06:05;;;;;;;43.97;17.33;;;;;;;;;;5010424;28;20466;-77
2023/03/01 00:08:32;;;;;;;40.37;18.07;;;;;;;;;;5010355;28;20026;-76
2023/03/01 00:11:12;;;;;;;40.37;17.90;;;;;;;;;;5011481;28;20028;-77
2023/03/01 00:13:37;;;;;;;40.20;16.20;;;;;;;;;;5010539;28;20057;-77
2023/03/01 00:16:05;;;;;;;38.73;16.37;;;;;;;;;;5010511;28;20096;-77
2023/03/01 00:18:31;;;;;;;39.33;16.77;;;;;;;;;;5011551;28;20165;-76
2023/03/01 00:20:56;;;;;;;42.43;16.57;;;;;;;;;;5010467;28;20057;-76
2023/03/01 00:23:23;;;;;;;39.37;17.23;;;;;;;;;;5011708;28;20402;-78
2023/03/01 00:25:49;;;;;;;34.63;16.30;;;;;;;;;;5010882;28;20030;-75
2023/03/01 00:28:15;;;;;;;44.27;18.73;;;;;;;;;;5011411;28;20031;-76
2023/03/01 00:30:40;;;;;;;36.40;17.50;;;;;;;;;;5012624;28;20014;-77
2023/03/01 00:33:06;;;;;;;39.03;18.23;;;;;;;;;;5014198;28;20489;-77
2023/03/01 00:35:35;;;;;;;44.43;17.27;;;;;;;;;;5014720;28;20028;-75
2023/03/01 00:38:00;;;;;;;40.30;17.97;;;;;;;;;;5013313;28;20123;-76
2023/03/01 00:40:32;;;;;;;41.13;18.93;;;;;;;;;;5011480;28;20085;-76
2023/03/01 00:42:58;;;;;;;40.75;16.88;;;;;;;;;;5012814;28;20022;-77
2023/03/01 00:45:24;;;;;;;46.47;17.10;;;;;;;;;;5011421;28;20536;-77
2023/03/01 00:47:51;;;;;;;38.03;16.47;;;;;;;;;;5012784;28;20172;-77
2023/03/01 00:50:17;;;;;;;45.87;17.10;;;;;;;;;;5012333;28;20080;-77
2023/03/01 00:52:43;;;;;;;40.90;16.47;;;;;;;;;;5013290;28;20034;-76
2023/03/01 00:55:08;;;;;;;49.23;19.40;;;;;;;;;;5009382;28;20033;-76
2023/03/01 00:57:34;;;;;;;50.23;20.40;;;;;;;;;;5010571;28;20363;-76
2023/03/01 00:59:59;;;;;;;45.37;18.27;;;;;;;;;;5010285;28;20490;-75
2023/03/01 01:02:25;;;;;;;55.17;20.43;;;;;;;;;;5009401;28;20048;-76
2023/03/01 01:04:51;;;;;;;49.93;22.50;;;;;;;;;;5009202;28;20088;-77
2023/03/01 01:07:19;;;;;;;48.17;20.20;;;;;;;;;;5010651;28;20025;-76
2023/03/01 01:09:45;;;;;;;48.50;22.00;;;;;;;;;;5009600;28;20029;-76
2023/03/01 01:12:11;;;;;;;54.03;21.17;;;;;;;;;;5010871;28;20060;-76
2023/03/01 01:14:37;;;;;;;51.07;20.50;;;;;;;;;;5011546;28;20033;-76
2023/03/01 01:17:02;;;;;;;50.27;21.00;;;;;;;;;;5030077;28;20033;-76
2023/03/01 01:19:28;;;;;;;48.03;20.80;;;;;;;;;;5011907;28;20416;-77
2023/03/01 01:21:53;;;;;;;48.20;21.27;;;;;;;;;;5030414;28;20041;-76
2023/03/01 01:24:19;;;;;;;47.77;19.03;;;;;;;;;;5030335;28;20033;-76
2023/03/01 01:26:45;;;;;;;46.63;17.43;;;;;;;;;;5030435;28;20044;-75
2023/03/01 01:29:11;;;;;;;38.00;17.20;;;;;;;;;;5012354;28;20030;-75
2023/03/01 01:31:39;;;;;;;40.23;18.27;;;;;;;;;;5030834;28;20025;-76
2023/03/01 01:34:06;;;;;;;38.20;16.17;;;;;;;;;;5013511;28;20036;-75
2023/03/01 01:36:33;;;;;;;43.67;16.83;;;;;;;;;;5030077;28;20026;-77
2023/03/01 01:38:59;;;;;;;43.43;18.17;;;;;;;;;;5031985;28;20024;-75
2023/03/01 01:41:26;;;;;;;40.03;16.80;;;;;;;;;;5031799;28;20029;-75
2023/03/01 01:44:17;;;;;;;38.60;16.63;;;;;;;;;;5015590;28;20029;-74
2023/03/01 01:46:56;;;;;;;41.87;17.13;;;;;;;;;;5035217;28;20041;-78
2023/03/01 01:49:27;;;;;;;40.00;17.53;;;;;;;;;;5034395;28;20080;-77
2023/03/01 01:52:34;;;;;;;43.07;16.63;;;;;;;;;;5015257;28;20051;-76
2023/03/01 01:55:10;;;;;;;44.23;17.83;;;;;;;;;;4972596;28;20026;-76
2023/03/01 01:57:42;;;;;;;45.90;18.93;;;;;;;;;;4989651;28;20057;-76
2023/03/01 02:00:18;;;;;;;47.97;20.57;;;;;;;;;;5007959;28;20068;-76
2023/03/01 02:02:46;;;;;;;43.97;18.23;;;;;;;;;;5013233;28;20112;-76
2023/03/01 02:05:28;;;;;;;47.90;20.23;;;;;;;;;;5012677;28;20053;-75
2023/03/01 02:07:54;;;;;;;;;;;;;;;;;;5026874;28;20025;-75
2023/03/01 02:10:23;;;;;;;44.30;17.73;;;;;;;;;;5019979;28;19910;-76
2023/03/01 02:12:49;;;;;;;50.47;20.13;;;;;;;;;;5029699;28;20386;-77
2023/03/01 02:15:14;;;;;;;48.77;20.53;;;;;;;;;;5028255;28;20075;-76
2023/03/01 02:17:40;;;;;;;45.07;19.70;;;;;;;;;;5011727;28;20026;-75
2023/03/01 02:20:31;;;;;;;51.53;19.20;;;;;;;;;;5029336;28;20052;-77
2023/03/01 02:22:56;;;;;;;47.83;19.47;;;;;;;;;;5028496;28;20144;-76
2023/03/01 02:25:22;;;;;;;51.97;19.57;;;;;;;;;;5028863;28;20108;-76
2023/03/01 02:28:18;;;;;;;50.83;21.20;;;;;;;;;;5011492;28;20034;-76
2023/03/01 02:33:36;;;;;;;47.20;18.83;;;;;;;;;;5034000;28;20095;-76
2023/03/01 02:36:08;;;;;;;49.10;18.43;;;;;;;;;;5037059;28;20137;-75
2023/03/01 02:38:33;;;;;;;;;;;;;;;;;;5015559;28;20033;-75
2023/03/01 02:41:01;;;;;;;40.53;16.67;;;;;;;;;;5025614;28;21327;-74
2023/03/01 02:43:30;;;;;;;37.57;18.47;;;;;;;;;;5033857;28;20476;-76
2023/03/01 02:45:58;;;;;;;42.90;18.50;;;;;;;;;;5038304;28;20037;-76
2023/03/01 02:48:24;;;;;;;42.50;17.67;;;;;;;;;;5027119;28;20025;-74
2023/03/01 02:51:11;;;;;;;37.73;15.70;;;;;;;;;;5025803;28;20022;-76
2023/03/01 02:53:50;;;;;;;38.67;16.60;;;;;;;;;;5016685;28;20029;-75
2023/03/01 02:56:15;;;;;;;46.63;18.50;;;;;;;;;;5031986;28;20028;-76
2023/03/01 02:58:44;;;;;;;39.17;16.80;;;;;;;;;;5016046;28;20033;-75
2023/03/01 03:01:10;;;;;;;41.57;17.87;;;;;;;;;;5032614;28;20067;-76
2023/03/01 03:03:36;;;;;;;38.87;16.40;;;;;;;;;;5015057;28;20029;-75
2023/03/01 03:06:01;;;;;;;43.33;17.13;;;;;;;;;;5014627;28;20094;-77
2023/03/01 03:08:26;;;;;;;40.67;15.17;;;;;;;;;;5031151;28;20036;-76
2023/03/01 03:10:52;;;;;;;39.40;16.50;;;;;;;;;;5014429;28;20021;-77
2023/03/01 03:13:18;;;;;;;38.03;15.63;;;;;;;;;;5014853;28;20670;-76
2023/03/01 03:15:44;;;;;;;38.27;17.07;;;;;;;;;;5032594;28;20081;-77
2023/03/01 03:18:13;;;;;;;40.90;15.93;;;;;;;;;;5024468;28;20086;-76
2023/03/01 03:20:41;;;;;;;41.13;16.67;;;;;;;;;;5033395;28;20453;-76
2023/03/01 03:23:07;;;;;;;40.07;17.00;;;;;;;;;;5015997;28;20481;-78
2023/03/01 03:25:32;;;;;;;40.43;15.87;;;;;;;;;;5033710;28;20072;-76
2023/03/01 03:27:58;;;;;;;37.90;17.00;;;;;;;;;;5033095;28;20036;-75
2023/03/01 03:30:30;;;;;;;39.60;16.20;;;;;;;;;;5014934;28;20064;-75
2023/03/01 03:32:57;;;;;;;39.83;16.17;;;;;;;;;;5032690;28;20029;-76
2023/03/01 03:35:32;;;;;;;34.53;16.97;;;;;;;;;;5014721;28;20634;-76
2023/03/01 03:38:02;;;;;;;39.20;16.57;;;;;;;;;;5014467;28;20029;-75
2023/03/01 03:40:29;;;;;;;41.57;16.40;;;;;;;;;;5013372;28;20064;-76
2023/03/01 03:42:55;;;;;;;37.03;16.13;;;;;;;;;;5013742;28;20026;-75
2023/03/01 03:45:21;;;;;;;47.70;19.07;;;;;;;;;;5013235;28;20041;-76
2023/03/01 03:47:46;;;;;;;42.23;17.80;;;;;;;;;;5031367;28;20072;-76
2023/03/01 03:50:15;;;;;;;49.57;17.70;;;;;;;;;;5031662;28;20083;-76
2023/03/01 03:52:41;;;;;;;46.73;19.27;;;;;;;;;;5032336;28;20068;-77
2023/03/01 03:55:09;;;;;;;47.87;17.70;;;;;;;;;;5031413;28;20043;-75
2023/03/01 03:57:35;;;;;;;49.33;18.70;;;;;;;;;;5029758;28;20107;-74
2023/03/01 04:00:00;;;;;;;45.33;18.70;;;;;;;;;;5013375;28;20086;-73
2023/03/01 04:02:26;;;;;;;43.20;17.47;;;;;;;;;;5012721;28;20029;-73
2023/03/01 04:04:51;;;;;;;40.93;17.43;;;;;;;;;;5030972;28;20033;-74
2023/03/01 04:07:17;;;;;;;41.53;17.13;;;;;;;;;;5011664;28;20140;-74
2023/03/01 04:09:43;;;;;;;48.93;19.03;;;;;;;;;;5013419;28;20025;-76
2023/03/01 04:12:10;;;;;;;48.97;20.27;;;;;;;;;;5030818;28;20029;-74
2023/03/01 04:14:36;;;;;;;42.67;16.97;;;;;;;;;;5030941;28;20257;-74
2023/03/01 04:17:05;;;;;;;40.10;16.10;;;;;;;;;;5012808;28;20037;-74
2023/03/01 04:19:35;;;;;;;47.30;17.70;;;;;;;;;;5014575;28;20033;-74
2023/03/01 04:22:09;;;;;;;44.67;17.50;;;;;;;;;;5011108;28;20029;-73
2023/03/01 04:24:37;;;;;;;43.23;17.67;;;;;;;;;;5012254;28;20022;-74
2023/03/01 04:27:03;;;;;;;52.50;18.83;;;;;;;;;;5031040;28;20045;-73
2023/03/01 04:29:29;;;;;;;44.93;18.47;;;;;;;;;;5012420;28;20033;-74
2023/03/01 04:31:55;;;;;;;44.00;16.73;;;;;;;;;;5030427;28;20029;-74
2023/03/01 04:34:20;;;;;;;37.23;17.50;;;;;;;;;;5012444;28;20389;-74
2023/03/01 04:36:46;;;;;;;45.60;19.17;;;;;;;;;;5030145;28;20456;-75
2023/03/01 04:39:14;;;;;;;44.83;18.27;;;;;;;;;;5012561;28;20025;-75
2023/03/01 04:41:40;;;;;;;41.83;18.33;;;;;;;;;;5030611;28;20036;-76
2023/03/01 04:44:08;;;;;;;49.37;17.67;;;;;;;;;;5031011;28;20472;-76
2023/03/01 04:46:35;;;;;;;47.60;18.23;;;;;;;;;;5030904;28;20065;-76
2023/03/01 04:49:01;;;;;;;52.43;18.60;;;;;;;;;;5029361;28;20033;-75
2023/03/01 04:51:26;;;;;;;50.20;18.97;;;;;;;;;;5031124;28;20032;-75
2023/03/01 04:53:52;;;;;;;43.03;17.60;;;;;;;;;;5012989;28;20033;-75
2023/03/01 04:56:17;;;;;;;43.47;19.57;;;;;;;;;;5012313;28;20120;-77
2023/03/01 04:58:44;;;;;;;58.70;21.87;;;;;;;;;;5012493;28;20049;-75
2023/03/01 05:01:18;;;;;;;48.03;18.43;;;;;;;;;;5011806;28;20099;-75
2023/03/01 05:03:48;;;;;;;57.63;21.63;;;;;;;;;;5012436;28;20342;-75
2023/03/01 05:06:15;;;;;;;47.33;19.10;;;;;;;;;;5011949;28;20116;-74
2023/03/01 05:08:41;;;;;;;51.93;20.40;;;;;;;;;;5030201;28;20037;-75
2023/03/01 05:11:08;;;;;;;36.40;17.07;;;;;;;;;;5012322;28;20021;-75
2023/03/01 05:13:36;;;;;;;47.13;16.97;;;;;;;;;;5014810;28;20028;-74
2023/03/01 05:16:02;;;;;;;46.20;17.77;;;;;;;;;;5012327;28;20533;-75
2023/03/01 05:18:30;;;;;;;39.10;16.27;;;;;;;;;;5012316;28;20056;-75
2023/03/01 05:21:03;;;;;;;41.30;18.23;;;;;;;;;;5012509;28;20037;-74
2023/03/01 05:23:30;;;;;;;55.63;20.67;;;;;;;;;;5012084;28;20025;-74
2023/03/01 05:26:00;;;;;;;65.23;19.57;;;;;;;;;;5029015;28;20049;-73
2023/03/01 05:28:27;;;;;;;55.20;20.80;;;;;;;;;;5029603;28;20091;-74
2023/03/01 05:30:53;;;;;;;50.53;19.80;;;;;;;;;;5012385;28;20060;-74
2023/03/01 05:33:19;;;;;;;51.30;20.53;;;;;;;;;;5030680;28;20037;-76
2023/03/01 05:35:45;;;;;;;51.40;20.70;;;;;;;;;;5012487;28;20071;-75
2023/03/01 05:38:15;;;;;;;56.37;21.40;;;;;;;;;;5030005;28;20069;-75
2023/03/01 05:40:46;;;;;;;50.77;18.90;;;;;;;;;;5012783;28;20048;-74
2023/03/01 05:43:14;;;;;;;54.83;20.73;;;;;;;;;;5030545;28;20056;-75
2023/03/01 05:45:40;;;;;;;59.10;20.93;;;;;;;;;;5009328;28;20073;-76
2023/03/01 05:48:07;;;;;;;47.43;21.90;;;;;;;;;;5018724;28;20068;-75
2023/03/01 05:50:35;;;;;;;49.87;20.97;;;;;;;;;;5011641;28;20025;-73
2023/03/01 05:53:08;;;;;;;48.70;20.57;;;;;;;;;;5011703;28;20036;-76
2023/03/01 05:55:36;;;;;;;53.87;22.07;;;;;;;;;;4996512;28;20029;-74
2023/03/01 05:58:03;;;;;;;54.70;21.30;;;;;;;;;;5029887;28;20040;-75
2023/03/01 06:00:30;;;;;;;44.70;19.00;;;;;;;;;;5011520;28;20163;-74
2023/03/01 06:02:57;;;;;;;52.10;20.40;;;;;;;;;;5010997;28;20025;-73
2023/03/01 06:05:23;;;;;;;43.47;20.07;;;;;;;;;;5011159;28;20177;-75
2023/03/01 06:07:50;;;;;;;51.50;21.10;;;;;;;;;;5010950;28;20021;-76
2023/03/01 06:10:16;;;;;;;47.93;19.17;;;;;;;;;;5013210;28;20478;-76
2023/03/01 06:12:44;;;;;;;52.77;21.17;;;;;;;;;;5011705;28;20025;-77
2023/03/01 06:15:12;;;;;;;45.87;20.93;;;;;;;;;;5008009;28;20139;-75
2023/03/01 06:17:40;;;;;;;58.13;23.43;;;;;;;;;;5007532;28;20041;-76
2023/03/01 06:20:15;;;;;;;53.57;21.20;;;;;;;;;;5009814;28;20492;-75
2023/03/01 06:22:41;;;;;;;52.10;21.20;;;;;;;;;;5008559;28;20030;-74
2023/03/01 06:25:08;;;;;;;47.10;18.20;;;;;;;;;;5009741;28;20030;-77
2023/03/01 06:27:34;;;;;;;48.70;19.20;;;;;;;;;;4974703;28;20034;-75
2023/03/01 06:29:59;;;;;;;57.57;22.40;;;;;;;;;;5009739;28;20033;-75
2023/03/01 06:32:25;;;;;;;56.30;22.57;;;;;;;;;;5014003;28;20034;-75
2023/03/01 06:34:51;;;;;;;47.30;20.20;;;;;;;;;;5015418;28;20029;-73
2023/03/01 06:37:16;;;;;;;49.10;19.07;;;;;;;;;;5015494;28;20033;-75
2023/03/01 06:39:41;;;;;;;45.47;18.97;;;;;;;;;;5019316;28;20030;-74
2023/03/01 06:42:10;;;;;;;45.03;19.57;;;;;;;;;;5021225;28;20040;-77
2023/03/01 06:44:37;;;;;;;56.60;19.87;;;;;;;;;;5010380;28;20375;-73
2023/03/01 06:47:03;;;;;;;38.73;17.77;;;;;;;;;;5024268;28;20051;-74
2023/03/01 06:49:29;;;;;;;48.20;20.80;;;;;;;;;;4995849;28;20441;-75
2023/03/01 06:51:55;;;;;;;54.60;20.47;;;;;;;;;;5010800;28;20088;-76
2023/03/01 06:54:24;;;;;;;48.87;19.50;;;;;;;;;;5009661;28;20022;-75
2023/03/01 06:56:49;;;;;;;50.60;20.57;;;;;;;;;;5009890;28;20577;-77
2023/03/01 06:59:16;;;;;;;49.33;19.90;;;;;;;;;;5009472;28;20148;-74
2023/03/01 07:01:42;;;;;;;48.90;18.53;;;;;;;;;;5010504;28;20022;-76
2023/03/01 07:04:07;;;;;;;55.40;20.70;;;;;;;;;;5005727;28;20389;-76
2023/03/01 07:06:33;;;;;;;51.13;19.30;;;;;;;;;;5009167;28;20050;-73
2023/03/01 07:08:58;;;;;;;44.50;19.47;;;;;;;;;;5010935;28;20079;-74
2023/03/01 07:11:24;;;;;;;53.37;20.53;;;;;;;;;;5009980;28;20497;-77
2023/03/01 07:13:51;;;;;;;51.63;20.07;;;;;;;;;;5001619;28;20425;-76
2023/03/01 07:16:16;;;;;;;47.43;19.83;;;;;;;;;;5007872;28;20141;-76
2023/03/01 07:18:42;;;;;;;49.53;19.53;;;;;;;;;;5004453;28;20465;-76
2023/03/01 07:21:09;;;;;;;45.37;19.97;;;;;;;;;;5008934;28;20125;-78
2023/03/01 07:23:35;;;;;;;61.57;23.20;;;;;;;;;;5008755;28;20087;-74
2023/03/01 07:26:01;;;;;;;51.73;20.00;;;;;;;;;;4989621;28;20183;-76
2023/03/01 07:28:27;;;;;;;50.17;21.03;;;;;;;;;;5008414;28;20528;-76
2023/03/01 07:30:53;;;;;;;40.90;20.00;;;;;;;;;;5001842;28;20026;-76
2023/03/01 07:33:19;;;;;;;48.00;18.83;;;;;;;;;;5003519;28;20045;-76
2023/03/01 07:35:44;;;;;;;44.33;17.90;;;;;;;;;;5005701;28;20487;-74
2023/03/01 07:38:10;;;;;;;49.53;19.37;;;;;;;;;;5006201;28;20688;-76
2023/03/01 07:40:36;;;;;;;52.40;19.83;;;;;;;;;;5003236;28;20148;-75
2023/03/01 07:43:01;;;;;;;44.20;18.83;;;;;;;;;;5002785;28;20088;-75
2023/03/01 07:45:28;;;;;;;46.90;19.83;;;;;;;;;;5006229;28;20509;-74
2023/03/01 07:47:55;;;;;;;45.70;17.57;;;;;;;;;;4996909;28;20044;-75
2023/03/01 07:50:22;;;;;;;56.03;19.50;;;;;;;;;;5003524;28;20068;-77
2023/03/01 07:52:49;;;;;;;43.73;18.97;;;;;;;;;;5002577;28;20046;-76
2023/03/01 07:55:17;;;;;;;48.00;19.83;;;;;;;;;;4989840;28;20041;-75
2023/03/01 07:57:43;;;;;;;49.80;18.77;;;;;;;;;;5005789;28;20021;-74
2023/03/01 08:00:12;;;;;;;45.27;18.20;;;;;;;;;;5003848;28;20036;-74
2023/03/01 08:02:40;;;;;;;43.50;17.47;;;;;;;;;;4987302;28;20045;-77
2023/03/01 08:05:05;;;;;;;39.40;18.27;;;;;;;;;;5000079;28;20087;-75
2023/03/01 08:07:31;;;;;;;42.17;18.47;;;;;;;;;;5001982;28;20502;-76
2023/03/01 08:09:56;;;;;;;43.00;17.77;;;;;;;;;;5000043;28;20034;-75
2023/03/01 08:12:22;;;;;;;44.73;18.60;;;;;;;;;;5014003;28;20129;-75
2023/03/01 08:14:47;;;;;;;38.63;16.87;;;;;;;;;;4994858;28;20105;-75
2023/03/01 08:17:14;;;;;;;45.67;16.00;;;;;;;;;;4983959;28;20187;-76
2023/03/01 08:19:40;;;;;;;39.77;17.00;;;;;;;;;;4979190;28;20117;-76
2023/03/01 08:22:08;;;;;;;44.47;18.73;;;;;;;;;;4977043;28;20088;-76
2023/03/01 08:24:36;;;;;;;46.37;18.57;;;;;;;;;;4978395;28;20034;-75
2023/03/01 08:27:05;;;;;;;43.30;17.53;;;;;;;;;;4977812;28;20038;-75
2023/03/01 08:29:32;;;;;;;45.30;18.57;;;;;;;;;;4975486;28;20049;-75
2023/03/01 08:31:58;;;;;;;42.77;18.77;;;;;;;;;;4979902;28;20046;-77
2023/03/01 08:34:23;;;;;;;51.13;20.50;;;;;;;;;;4983753;28;20133;-77
2023/03/01 08:36:51;;;;;;;40.97;17.77;;;;;;;;;;4981653;28;20569;-75
2023/03/01 08:39:19;;;;;;;40.23;18.10;;;;;;;;;;4981908;28;20034;-75
2023/03/01 08:41:46;;;;;;;44.63;18.30;;;;;;;;;;4995312;28;20041;-75
2023/03/01 08:44:13;;;;;;;41.30;19.87;;;;;;;;;;4980477;28;20065;-75
2023/03/01 08:46:44;;;;;;;48.03;18.87;;;;;;;;;;4982577;28;20084;-78
2023/03/01 08:49:16;;;;;;;37.80;16.90;;;;;;;;;;4981088;28;20050;-76
2023/03/01 08:51:44;;;;;;;48.58;18.40;;;;;;;;;;4981432;28;20830;-77
2023/03/01 08:54:14;;;;;;;44.07;17.87;;;;;;;;;;4976462;28;20056;-77
2023/03/01 08:56:41;;;;;;;45.37;16.83;;;;;;;;;;4982522;28;20034;-77
2023/03/01 08:59:08;;;;;;;38.80;17.27;;;;;;;;;;4980887;28;20064;-79
2023/03/01 09:01:34;;;;;;;47.23;19.33;;;;;;;;;;4979240;28;20046;-75
2023/03/01 09:04:00;;;;;;;41.33;19.67;;;;;;;;;;4986200;28;20038;-75
2023/03/01 09:06:26;;;;;;;39.10;19.83;;;;;;;;;;4980868;28;20030;-74
2023/03/01 09:08:54;;;;;;;42.90;18.73;;;;;;;;;;4984853;28;20026;-75
2023/03/01 09:11:21;;;;;;;42.67;17.03;;;;;;;;;;4977631;28;20022;-73
2023/03/01 09:13:49;;;;;;;41.43;17.60;;;;;;;;;;4986821;28;20098;-74
2023/03/01 09:16:19;;;;;;;42.63;16.87;;;;;;;;;;4988422;28;20049;-76
2023/03/01 09:18:50;;;;;;;44.63;17.77;;;;;;;;;;4997106;28;20045;-74
2023/03/01 09:21:18;;;;;;;40.33;17.03;;;;;;;;;;4998050;28;20034;-77
2023/03/01 09:23:46;;;;;;;35.20;16.17;;;;;;;;;;5001795;28;20161;-76
2023/03/01 09:26:16;;;;;;;41.57;17.07;;;;;;;;;;5002166;28;20022;-75
2023/03/01 09:28:44;;;;;;;41.70;17.13;;;;;;;;;;5004063;28;20339;-75
2023/03/01 09:31:12;;;;;;;41.20;16.53;;;;;;;;;;5005052;28;20057;-76
2023/03/01 09:33:39;;;;;;;36.43;16.43;;;;;;;;;;5003702;28;20053;-75
2023/03/01 09:36:12;;;;;;;36.30;15.40;;;;;;;;;;5004540;28;20032;-75
2023/03/01 09:38:39;;;;;;;33.33;15.23;;;;;;;;;;5003060;28;20532;-75
2023/03/01 09:41:39;;;;;;;34.77;15.20;;;;;;;;;;4997264;28;20030;-75
2023/03/01 09:44:43;;;;;;;36.57;15.03;;;;;;;;;;5001046;28;20030;-74
2023/03/01 09:47:19;;;;;;;33.77;15.83;;;;;;;;;;5016923;28;20033;-77
2023/03/01 09:49:58;;;;;;;28.47;15.03;;;;;;;;;;5014459;28;20121;-76
2023/03/01 09:52:29;;;;;;;31.50;15.67;;;;;;;;;;5023540;28;20032;-76
2023/03/01 09:54:58;;;;;;;33.55;15.35;;;;;;;;;;4994646;28;20535;-75
2023/03/01 09:57:56;;;;;;;32.43;15.53;;;;;;;;;;4999802;28;20033;-74
2023/03/01 10:00:31;;;;;;;38.60;15.97;;;;;;;;;;4996748;28;20088;-73
2023/03/01 10:03:09;;;;;;;31.33;14.23;;;;;;;;;;5000228;28;20512;-73
2023/03/01 10:06:23;;;;;;;32.83;14.80;;;;;;;;;;5002524;28;20061;-74
2023/03/01 10:09:13;;;;;;;35.90;15.43;;;;;;;;;;4967460;28;20683;-76
2023/03/01 10:11:49;;;;;;;31.87;13.50;;;;;;;;;;4996062;28;20593;-74
2023/03/01 10:14:25;;;;;;;34.83;15.80;;;;;;;;;;4999891;28;20030;-73
2023/03/01 10:17:15;;;;;;;35.37;16.77;;;;;;;;;;5002276;28;20662;-74
2023/03/01 10:19:46;;;;;;;36.20;15.50;;;;;;;;;;4994948;28;20124;-75
2023/03/01 10:22:21;;;;;;;39.33;15.85;;;;;;;;;;4998004;28;20090;-76
2023/03/01 10:24:48;;;;;;;35.63;16.37;;;;;;;;;;5002091;28;20099;-75
2023/03/01 10:27:51;;;;;;;41.03;15.87;;;;;;;;;;5003736;28;20022;-74
2023/03/01 10:30:30;;;;;;;34.87;15.10;;;;;;;;;;5005090;28;20490;-75
2023/03/01 10:32:58;;;;;;;36.93;15.67;;;;;;;;;;4996304;28;20065;-77
2023/03/01 10:35:27;;;;;;;40.73;16.63;;;;;;;;;;5005512;28;20521;-74
2023/03/01 10:38:09;;;;;;;39.23;15.83;;;;;;;;;;5001433;28;20033;-75
2023/03/01 10:40:36;;;;;;;32.90;16.00;;;;;;;;;;5000016;28;20064;-73
2023/03/01 10:43:14;;;;;;;31.43;14.50;;;;;;;;;;4999435;28;20173;-77
2023/03/01 10:45:40;;;;;;;29.67;14.97;;;;;;;;;;4999599;28;20192;-73
2023/03/01 10:48:15;;;;;;;32.37;14.57;;;;;;;;;;5004334;28;20096;-75
2023/03/01 10:50:47;;;;;;;27.97;14.13;;;;;;;;;;5005055;28;20045;-74
2023/03/01 10:53:38;;;;;;;27.15;14.65;;;;;;;;;;5027372;28;20057;-73
2023/03/01 10:56:08;;;;;;;45.63;15.17;;;;;;;;;;5003003;28;20036;-74
2023/03/01 10:58:38;;;;;;;31.17;14.30;;;;;;;;;;5001083;28;20036;-77
2023/03/01 11:01:25;;;;;;;29.88;14.73;;;;;;;;;;5001219;28;20034;-75
2023/03/01 11:04:12;;;;;;;34.23;15.43;;;;;;;;;;5000253;28;20080;-74
2023/03/01 11:06:40;;;;;;;33.40;15.57;;;;;;;;;;4990102;28;20136;-74
2023/03/01 11:09:22;;;;;;;31.57;15.90;;;;;;;;;;5005947;28;20037;-78
2023/03/01 11:12:17;;;;;;;32.30;15.52;;;;;;;;;;5000215;28;20029;-76
2023/03/01 11:14:53;;;;;;;36.47;16.33;;;;;;;;;;5013183;28;20049;-77
2023/03/01 11:17:29;;;;;;;32.13;14.40;;;;;;;;;;5014654;28;20025;-75
2023/03/01 11:20:14;;;;;;;31.87;14.73;;;;;;;;;;5023305;28;20120;-74
2023/03/01 11:22:54;;;;;;;29.23;13.57;;;;;;;;;;5022516;28;20105;-74
2023/03/01 11:25:26;;;;;;;34.97;15.20;;;;;;;;;;5010595;28;20076;-75
2023/03/01 11:27:53;;;;;;;34.47;14.17;;;;;;;;;;4991699;28;20424;-77
2023/03/01 11:30:45;;;;;;;33.97;15.67;;;;;;;;;;5008580;28;20036;-74
2023/03/01 11:33:39;;;;;;;30.70;12.65;;;;;;;;;;4997447;28;20044;-77
2023/03/01 11:36:29;;;;;;;35.77;15.93;;;;;;;;;;5014906;28;20041;-76
2023/03/01 11:39:13;;;;;;;31.40;13.27;;;;;;;;;;5022080;28;20128;-75
2023/03/01 11:41:41;;;;;;;29.93;15.27;;;;;;;;;;5021743;28;20029;-76
2023/03/01 11:44:20;;;;;;;29.47;13.03;;;;;;;;;;4993017;28;20037;-76
2023/03/01 11:47:24;;;;;;;29.33;15.30;;;;;;;;;;5012169;28;20124;-76
2023/03/01 11:50:05;;;;;;;31.07;14.13;;;;;;;;;;4986758;28;20041;-75
2023/03/01 11:52:57;;;;;;;34.13;15.37;;;;;;;;;;5003952;28;20389;-74
2023/03/01 11:55:45;;;;;;;31.07;14.00;;;;;;;;;;5022619;28;20029;-75
2023/03/01 11:58:23;;;;;;;30.10;14.97;;;;;;;;;;5022962;28;20591;-76
2023/03/01 12:01:20;;;;;;;28.10;14.37;;;;;;;;;;5002016;28;20021;-75
2023/03/01 12:04:20;;;;;;;31.87;14.77;;;;;;;;;;5001719;28;20219;-75
2023/03/01 12:07:24;;;;;;;31.23;14.77;;;;;;;;;;5006682;28;20124;-75
2023/03/01 12:10:14;;;;;;;29.80;13.93;;;;;;;;;;4932625;29;20031;-74
2023/03/01 12:13:15;;;;;;;29.67;13.17;;;;;;;;;;5013676;28;20121;-75
2023/03/01 12:16:03;;;;;;;32.37;14.03;;;;;;;;;;4977629;28;20074;-75
2023/03/01 12:18:35;;;;;;;25.70;13.47;;;;;;;;;;4993746;28;20033;-74
2023/03/01 12:21:14;;;;;;;34.13;14.63;;;;;;;;;;4990477;28;20034;-76
2023/03/01 12:24:14;;;;;;;28.57;13.03;;;;;;;;;;4987121;28;20038;-76
2023/03/01 12:26:49;;;;;;;30.10;13.50;;;;;;;;;;4989436;28;20040;-77
2023/03/01 12:29:42;;;;;;;28.27;13.90;;;;;;;;;;4990794;28;20053;-75
2023/03/01 12:32:25;;;;;;;30.75;14.55;;;;;;;;;;4986435;28;20033;-76
2023/03/01 12:35:34;;;;;;;35.43;15.83;;;;;;;;;;5000245;28;20547;-75
2023/03/01 12:38:22;;;;;;;31.67;13.93;;;;;;;;;;5018119;28;20393;-74
2023/03/01 12:41:15;;;;;;;33.95;15.57;;;;;;;;;;5013360;28;20041;-73
2023/03/01 12:44:02;;;;;;;31.67;15.53;;;;;;;;;;5000666;28;20042;-77
2023/03/01 12:46:36;;;;;;;36.37;16.33;;;;;;;;;;5014181;28;20021;-75
2023/03/01 12:49:25;;;;;;;41.13;17.57;;;;;;;;;;5014199;28;20144;-76
2023/03/01 12:51:58;;;;;;;33.30;15.80;;;;;;;;;;5011443;28;20129;-76
2023/03/01 12:54:31;;;;;;;33.85;16.67;;;;;;;;;;5012872;28;20037;-76
2023/03/01 12:57:26;;;;;;;29.92;15.38;;;;;;;;;;5000861;28;20046;-74
2023/03/01 13:00:23;;;;;;;36.30;17.40;;;;;;;;;;4996007;28;20328;-74
2023/03/01 13:03:02;;;;;;;30.52;15.68;;;;;;;;;;4994303;28;20606;-77
2023/03/01 13:05:51;;;;;;;31.55;15.77;;;;;;;;;;4998587;28;20025;-74
2023/03/01 13:08:27;;;;;;;37.85;15.90;;;;;;;;;;4988211;28;20037;-75
2023/03/01 13:11:01;;;;;;;30.17;14.87;;;;;;;;;;4994142;28;20030;-75
2023/03/01 13:13:28;;;;;;;32.40;15.83;;;;;;;;;;5011905;28;20103;-74
2023/03/01 13:16:23;;;;;;;30.87;14.83;;;;;;;;;;5014435;28;20095;-75
2023/03/01 13:18:48;;;;;;;35.80;15.97;;;;;;;;;;5004661;28;20029;-74
2023/03/01 13:21:30;;;;;;;33.17;16.17;;;;;;;;;;5018069;28;20040;-74
2023/03/01 13:23:56;;;;;;;31.98;15.38;;;;;;;;;;5020677;28;20036;-75
2023/03/01 13:26:22;;;;;;;37.33;15.60;;;;;;;;;;5017802;28;20126;-75
2023/03/01 13:28:49;;;;;;;33.05;15.35;;;;;;;;;;5003359;28;20079;-74
2023/03/01 13:31:15;;;;;;;39.22;16.17;;;;;;;;;;4998477;28;20269;-77
2023/03/01 13:33:52;;;;;;;30.63;15.13;;;;;;;;;;4997486;28;20055;-75
2023/03/01 13:36:33;;;;;;;36.33;15.43;;;;;;;;;;5016646;28;20045;-75
2023/03/01 13:39:27;;;;;;;33.03;16.20;;;;;;;;;;5017952;28;20136;-75
2023/03/01 13:42:32;;;;;;;38.97;16.60;;;;;;;;;;5022745;28;20029;-75
2023/03/01 13:44:57;;;;;;;32.20;14.65;;;;;;;;;;5022968;28;20112;-76
2023/03/01 13:47:24;;;;;;;30.13;14.05;;;;;;;;;;5027066;28;20481;-76
2023/03/01 13:49:59;;;;;;;29.55;14.63;;;;;;;;;;5025843;28;20113;-74
2023/03/01 13:52:48;;;;;;;26.65;15.20;;;;;;;;;;5025592;28;20029;-75
2023/03/01 13:55:13;;;;;;;31.25;13.07;;;;;;;;;;5023756;28;20465;-76
2023/03/01 13:57:41;;;;;;;29.15;14.05;;;;;;;;;;4985365;28;20107;-75
2023/03/01 14:00:39;;;;;;;28.45;13.77;;;;;;;;;;4984963;28;20156;-75
2023/03/01 14:03:08;;;;;;;26.02;13.00;;;;;;;;;;4999998;28;20072;-75
2023/03/01 14:05:35;;;;;;;22.42;12.05;;;;;;;;;;4991016;28;20033;-76
2023/03/01 14:08:03;;;;;;;26.65;13.48;;;;;;;;;;4997072;28;20045;-74
2023/03/01 14:10:42;;;;;;;28.55;14.13;;;;;;;;;;5002848;28;20355;-73
2023/03/01 14:13:46;;;;;;;28.20;14.80;;;;;;;;;;5011847;28;20444;-75
2023/03/01 14:16:24;;;;;;;32.97;15.55;;;;;;;;;;4978893;28;20413;-75
2023/03/01 14:19:07;;;;;;;30.55;13.65;;;;;;;;;;5001184;28;20041;-76
2023/03/01 14:21:36;;;;;;;30.60;14.65;;;;;;;;;;4996984;28;20439;-76
2023/03/01 14:24:02;;;;;;;32.67;14.85;;;;;;;;;;5002771;28;20040;-79
2023/03/01 14:26:28;;;;;;;24.75;12.93;;;;;;;;;;4998631;28;20034;-76
2023/03/01 14:28:55;;;;;;;32.33;15.60;;;;;;;;;;5001444;28;20022;-74
2023/03/01 14:31:38;;;;;;;29.67;14.35;;;;;;;;;;4995351;28;21462;-75
2023/03/01 14:34:05;;;;;;;30.30;13.23;;;;;;;;;;4996950;28;20056;-76
2023/03/01 14:36:33;;;;;;;36.03;14.60;;;;;;;;;;4996941;28;20157;-76
2023/03/01 14:39:04;;;;;;;27.13;13.90;;;;;;;;;;4999102;28;20029;-75
2023/03/01 14:41:33;;;;;;;26.83;13.82;;;;;;;;;;4996288;28;20030;-75
2023/03/01 14:44:06;;;;;;;27.60;14.17;;;;;;;;;;4996901;28;20041;-77
2023/03/01 14:46:36;;;;;;;28.25;13.43;;;;;;;;;;4994238;28;20166;-77
2023/03/01 14:49:15;;;;;;;31.27;13.63;;;;;;;;;;4999642;28;20034;-76